createdAt,value
2018-10-18T00:00:59.609Z,118.30
2018-10-18T00:01:59.638Z,106.90
2018-10-18T00:02:59.583Z,109.80
2018-10-18T00:03:59.577Z,115.50
2018-10-18T00:04:59.519Z,114.50
2018-10-18T00:05:59.579Z,116.10
2018-10-18T00:06:59.700Z,116.80
2018-10-18T00:07:59.566Z,113.30
2018-10-18T00:08:59.515Z,116.50
2018-10-18T00:09:59.505Z,113.10
2018-10-18T00:10:59.494Z,108.40
2018-10-18T00:11:59.466Z,117.50
2018-10-18T00:12:59.489Z,116.80
2018-10-18T00:13:59.519Z,110.10
2018-10-18T00:14:59.406Z,117.30
2018-10-18T00:15:59.439Z,114.80
2018-10-18T00:16:59.449Z,115.00
2018-10-18T00:17:59.468Z,113.50
2018-10-18T00:18:59.403Z,113.10
2018-10-18T00:19:59.446Z,113.20
2018-10-18T00:20:59.389Z,118.60
2018-10-18T00:21:59.394Z,114.50
2018-10-18T00:22:59.362Z,112.60
2018-10-18T00:23:59.392Z,120.10
2018-10-18T00:24:59.340Z,118.40
2018-10-18T00:25:59.374Z,104.20
2018-10-18T00:26:59.350Z,117.10
2018-10-18T00:27:59.263Z,117.70
2018-10-18T00:28:59.298Z,116.60
2018-10-18T00:29:59.315Z,115.70
2018-10-18T00:30:59.279Z,120.20
2018-10-18T00:31:59.343Z,119.60
2018-10-18T00:32:59.259Z,120.10
2018-10-18T00:33:59.210Z,120.40
2018-10-18T00:34:59.198Z,119.70
2018-10-18T00:35:59.238Z,115.80
2018-10-18T00:36:59.230Z,119.50
2018-10-18T00:37:59.227Z,117.20
2018-10-18T00:38:59.194Z,121.20
2018-10-18T00:39:59.176Z,129.60
2018-10-18T00:40:59.164Z,124.00
2018-10-18T00:41:59.184Z,120.30
2018-10-18T00:42:59.139Z,123.70
2018-10-18T00:43:59.190Z,117.60
2018-10-18T00:44:59.127Z,121.20
2018-10-18T00:45:59.151Z,126.00
2018-10-18T00:46:59.131Z,117.40
2018-10-18T00:47:59.139Z,116.00
2018-10-18T00:48:59.075Z,122.50
2018-10-18T00:49:59.039Z,115.50
2018-10-18T00:50:59.055Z,118.70
2018-10-18T00:51:59.070Z,116.20
2018-10-18T00:52:59.034Z,121.70
2018-10-18T00:53:59.041Z,113.00
2018-10-18T00:54:59.008Z,124.40
2018-10-18T00:55:59.008Z,123.40
2018-10-18T00:56:59.014Z,123.80
2018-10-18T00:57:58.979Z,122.30
2018-10-18T00:58:58.969Z,127.90
2018-10-18T00:59:58.980Z,123.70
2018-10-18T01:00:58.899Z,127.70
2018-10-18T01:01:58.968Z,127.70
2018-10-18T01:02:58.925Z,126.30
2018-10-18T01:03:58.909Z,127.10
2018-10-18T01:04:58.899Z,123.90
2018-10-18T01:05:58.904Z,125.70
2018-10-18T01:06:58.899Z,130.80
2018-10-18T01:07:58.882Z,129.90
2018-10-18T01:08:58.870Z,120.20
2018-10-18T01:09:58.842Z,116.70
2018-10-18T01:10:58.834Z,124.30
2018-10-18T01:11:58.895Z,126.30
2018-10-18T01:12:58.809Z,128.20
2018-10-18T01:13:58.837Z,128.50
2018-10-18T01:14:58.800Z,128.90
2018-10-18T01:15:58.776Z,132.40
2018-10-18T01:16:58.787Z,131.00
2018-10-18T01:17:58.770Z,133.70
2018-10-18T01:18:58.746Z,127.70
2018-10-18T01:19:58.787Z,128.40
2018-10-18T01:20:58.725Z,125.50
2018-10-18T01:21:58.685Z,130.30
2018-10-18T01:22:58.698Z,130.60
2018-10-18T01:23:58.697Z,136.10
2018-10-18T01:24:58.637Z,136.80
2018-10-18T01:25:58.705Z,131.40
2018-10-18T01:26:58.793Z,134.60
2018-10-18T01:27:58.605Z,135.70
2018-10-18T01:28:58.595Z,130.40
2018-10-18T01:29:58.651Z,125.50
2018-10-18T01:30:58.618Z,127.60
2018-10-18T01:31:58.649Z,124.70
2018-10-18T01:32:58.599Z,124.90
2018-10-18T01:33:58.579Z,124.90
2018-10-18T01:34:58.568Z,122.70
2018-10-18T01:35:58.616Z,121.20
2018-10-18T01:36:58.721Z,120.00
2018-10-18T01:37:58.538Z,128.00
2018-10-18T01:38:58.575Z,121.20
2018-10-18T01:39:58.470Z,121.30
2018-10-18T01:40:58.501Z,127.10
2018-10-18T01:41:58.493Z,128.30
2018-10-18T01:42:58.779Z,114.70
2018-10-18T01:43:58.445Z,122.70
2018-10-18T01:44:58.460Z,114.80
2018-10-18T01:45:58.449Z,116.70
2018-10-18T01:46:58.438Z,112.50
2018-10-18T01:47:58.472Z,112.90
2018-10-18T01:48:58.416Z,112.60
2018-10-18T01:49:58.408Z,111.10
2018-10-18T01:50:58.393Z,112.90
2018-10-18T01:51:58.381Z,115.50
2018-10-18T01:52:58.420Z,113.80
2018-10-18T01:53:58.394Z,117.30
2018-10-18T01:54:58.349Z,113.20
2018-10-18T01:55:58.379Z,116.20
2018-10-18T01:56:58.336Z,112.50
2018-10-18T01:57:58.339Z,106.60
2018-10-18T01:58:58.315Z,113.90
2018-10-18T01:59:58.325Z,110.10
2018-10-18T02:00:58.281Z,111.90
2018-10-18T02:01:58.322Z,107.30
2018-10-18T02:02:58.235Z,108.50
2018-10-18T02:03:58.247Z,110.90
2018-10-18T02:04:58.239Z,106.90
2018-10-18T02:05:58.274Z,111.60
2018-10-18T02:06:58.213Z,110.40
2018-10-18T02:07:58.229Z,107.30
2018-10-18T02:08:58.195Z,108.30
2018-10-18T02:09:58.184Z,111.10
2018-10-18T02:10:58.184Z,107.20
2018-10-18T02:11:58.166Z,109.10
2018-10-18T02:12:58.133Z,110.20
2018-10-18T02:13:58.103Z,105.60
2018-10-18T02:14:58.124Z,108.60
2018-10-18T02:15:58.129Z,104.80
2018-10-18T02:16:58.109Z,113.20
2018-10-18T02:17:58.156Z,110.70
2018-10-18T02:18:58.108Z,108.80
2018-10-18T02:19:58.071Z,106.50
2018-10-18T02:20:58.065Z,111.20
2018-10-18T02:21:58.062Z,110.10
2018-10-18T02:22:58.069Z,119.30
2018-10-18T02:23:58.084Z,112.40
2018-10-18T02:24:58.069Z,105.40
2018-10-18T02:25:57.973Z,106.80
2018-10-18T02:26:57.999Z,108.00
2018-10-18T02:27:58.008Z,107.00
2018-10-18T02:28:57.985Z,113.30
2018-10-18T02:29:57.993Z,106.40
2018-10-18T02:30:57.958Z,104.00
2018-10-18T02:31:57.907Z,114.10
2018-10-18T02:32:57.958Z,116.00
2018-10-18T02:33:57.925Z,122.30
2018-10-18T02:34:57.873Z,118.70
2018-10-18T02:35:58.001Z,112.10
2018-10-18T02:36:57.914Z,113.70
2018-10-18T02:37:57.885Z,115.60
2018-10-18T02:38:57.888Z,119.60
2018-10-18T02:39:57.857Z,109.20
2018-10-18T02:40:57.855Z,114.30
2018-10-18T02:41:57.870Z,114.10
2018-10-18T02:42:57.825Z,105.90
2018-10-18T02:43:57.840Z,112.40
2018-10-18T02:44:57.804Z,108.10
2018-10-18T02:45:57.794Z,104.10
2018-10-18T02:46:57.785Z,108.00
2018-10-18T02:47:57.780Z,113.90
2018-10-18T02:48:57.780Z,110.40
2018-10-18T02:49:57.755Z,107.80
2018-10-18T02:50:57.738Z,113.40
2018-10-18T02:51:57.731Z,109.10
2018-10-18T02:52:57.725Z,106.20
2018-10-18T02:53:57.735Z,116.50
2018-10-18T02:54:57.695Z,115.80
2018-10-18T02:55:57.689Z,122.80
2018-10-18T02:56:57.671Z,119.10
2018-10-18T02:57:57.667Z,120.30
2018-10-18T02:58:57.628Z,127.10
2018-10-18T02:59:57.645Z,130.20
2018-10-18T03:00:57.633Z,129.40
2018-10-18T03:01:57.625Z,133.70
2018-10-18T03:02:57.611Z,132.60
2018-10-18T03:03:57.617Z,127.30
2018-10-18T03:04:57.586Z,125.00
2018-10-18T03:05:57.625Z,139.30
2018-10-18T03:06:57.564Z,131.90
2018-10-18T03:07:57.568Z,129.90
2018-10-18T03:08:57.572Z,132.70
2018-10-18T03:09:57.531Z,126.40
2018-10-18T03:10:57.524Z,136.00
2018-10-18T03:11:57.523Z,129.40
2018-10-18T03:12:57.507Z,125.50
2018-10-18T03:13:57.520Z,128.50
2018-10-18T03:14:57.489Z,132.60
2018-10-18T03:15:57.517Z,130.30
2018-10-18T03:16:57.461Z,136.80
2018-10-18T03:17:57.499Z,129.50
2018-10-18T03:18:57.457Z,134.00
2018-10-18T03:19:57.388Z,127.70
2018-10-18T03:20:57.416Z,128.90
2018-10-18T03:21:57.406Z,126.80
2018-10-18T03:22:57.400Z,127.80
2018-10-18T03:23:57.409Z,120.40
2018-10-18T03:24:57.332Z,123.30
2018-10-18T03:25:57.360Z,130.30
2018-10-18T03:26:57.367Z,133.70
2018-10-18T03:27:57.350Z,133.90
2018-10-18T03:28:57.533Z,123.60
2018-10-18T03:29:57.369Z,131.70
2018-10-18T03:30:57.311Z,142.70
2018-10-18T03:31:57.297Z,140.40
2018-10-18T03:32:57.288Z,145.50
2018-10-18T03:33:57.364Z,135.00
2018-10-18T03:34:57.265Z,137.60
2018-10-18T03:35:57.372Z,145.60
2018-10-18T03:36:57.239Z,150.70
2018-10-18T03:37:57.237Z,140.90
2018-10-18T03:38:57.312Z,148.40
2018-10-18T03:39:57.211Z,145.00
2018-10-18T03:40:57.195Z,150.30
2018-10-18T03:41:57.244Z,149.00
2018-10-18T03:42:57.179Z,152.40
2018-10-18T03:43:57.192Z,156.00
2018-10-18T03:44:57.206Z,149.20
2018-10-18T03:45:57.137Z,150.50
2018-10-18T03:46:57.131Z,162.30
2018-10-18T03:47:57.133Z,147.70
2018-10-18T03:48:57.147Z,143.20
2018-10-18T03:49:57.112Z,151.70
2018-10-18T03:50:57.088Z,152.30
2018-10-18T03:51:57.078Z,153.40
2018-10-18T03:52:57.072Z,155.20
2018-10-18T03:53:57.084Z,153.50
2018-10-18T03:54:57.049Z,153.60
2018-10-18T03:55:57.041Z,152.50
2018-10-18T03:56:57.025Z,155.90
2018-10-18T03:57:57.010Z,154.70
2018-10-18T03:58:57.010Z,161.30
2018-10-18T03:59:57.024Z,166.60
2018-10-18T04:00:56.980Z,163.20
2018-10-18T04:01:56.982Z,161.80
2018-10-18T04:02:56.955Z,163.20
2018-10-18T04:03:56.950Z,156.30
2018-10-18T04:04:56.955Z,152.00
2018-10-18T04:05:56.970Z,159.90
2018-10-18T04:06:56.924Z,153.40
2018-10-18T04:07:56.923Z,158.90
2018-10-18T04:08:56.896Z,153.30
2018-10-18T04:09:56.908Z,151.80
2018-10-18T04:10:56.870Z,165.00
2018-10-18T04:11:56.876Z,157.40
2018-10-18T04:12:56.912Z,161.80
2018-10-18T04:13:56.839Z,154.90
2018-10-18T04:14:56.862Z,159.60
2018-10-18T04:15:56.820Z,166.30
2018-10-18T04:16:56.808Z,158.10
2018-10-18T04:17:56.827Z,160.60
2018-10-18T04:18:56.791Z,158.60
2018-10-18T04:19:56.795Z,155.80
2018-10-18T04:20:56.759Z,153.60
2018-10-18T04:21:56.720Z,162.00
2018-10-18T04:22:56.752Z,159.20
2018-10-18T04:23:56.774Z,157.60
2018-10-18T04:24:56.739Z,159.00
2018-10-18T04:25:56.712Z,159.50
2018-10-18T04:26:56.693Z,155.20
2018-10-18T04:27:56.656Z,157.40
2018-10-18T04:28:56.684Z,156.30
2018-10-18T04:29:56.740Z,148.50
2018-10-18T04:30:56.648Z,152.10
2018-10-18T04:31:56.605Z,149.40
2018-10-18T04:32:56.633Z,149.50
2018-10-18T04:33:56.627Z,159.10
2018-10-18T04:34:56.627Z,163.50
2018-10-18T04:35:56.660Z,163.90
2018-10-18T04:36:56.593Z,166.60
2018-10-18T04:37:56.610Z,168.40
2018-10-18T04:38:56.563Z,171.50
2018-10-18T04:39:56.577Z,169.60
2018-10-18T04:40:56.548Z,169.90
2018-10-18T04:41:56.540Z,176.60
2018-10-18T04:42:56.520Z,167.00
2018-10-18T04:43:56.520Z,172.50
2018-10-18T04:44:56.522Z,166.60
2018-10-18T04:45:56.493Z,161.20
2018-10-18T04:46:56.484Z,162.90
2018-10-18T04:47:56.539Z,163.70
2018-10-18T04:48:56.535Z,159.50
2018-10-18T04:49:56.459Z,162.40
2018-10-18T04:50:56.437Z,156.60
2018-10-18T04:51:56.421Z,156.90
2018-10-18T04:52:56.411Z,159.30
2018-10-18T04:53:56.403Z,159.30
2018-10-18T04:54:56.472Z,163.10
2018-10-18T04:55:56.387Z,149.90
2018-10-18T04:56:56.416Z,161.00
2018-10-18T04:57:56.356Z,162.50
2018-10-18T04:58:56.298Z,164.50
2018-10-18T04:59:56.360Z,161.20
2018-10-18T05:00:56.341Z,178.70
2018-10-18T05:01:56.313Z,171.60
2018-10-18T05:02:56.319Z,166.80
2018-10-18T05:03:56.294Z,160.00
2018-10-18T05:04:56.382Z,163.00
2018-10-18T05:05:56.272Z,168.10
2018-10-18T05:06:56.226Z,173.50
2018-10-18T05:07:56.247Z,168.40
2018-10-18T05:08:56.238Z,165.30
2018-10-18T05:09:56.254Z,171.10
2018-10-18T05:10:56.212Z,167.90
2018-10-18T05:11:56.208Z,163.60
2018-10-18T05:12:56.201Z,164.90
2018-10-18T05:13:56.189Z,169.90
2018-10-18T05:14:56.194Z,168.70
2018-10-18T05:15:56.161Z,176.40
2018-10-18T05:16:56.153Z,168.30
2018-10-18T05:17:56.165Z,170.60
2018-10-18T05:18:56.142Z,171.80
2018-10-18T05:19:56.125Z,173.70
2018-10-18T05:20:56.231Z,172.40
2018-10-18T05:21:56.097Z,173.80
2018-10-18T05:22:56.062Z,171.70
2018-10-18T05:23:56.080Z,168.80
2018-10-18T05:24:56.054Z,175.80
2018-10-18T05:25:56.051Z,171.60
2018-10-18T05:26:55.998Z,170.00
2018-10-18T05:27:56.047Z,170.30
2018-10-18T05:28:56.025Z,156.00
2018-10-18T05:29:56.008Z,168.80
2018-10-18T05:30:55.984Z,166.00
2018-10-18T05:31:55.992Z,176.70
2018-10-18T05:32:55.996Z,171.20
2018-10-18T05:33:55.980Z,167.50
2018-10-18T05:34:55.964Z,169.60
2018-10-18T05:35:55.900Z,175.10
2018-10-18T05:36:55.909Z,163.50
2018-10-18T05:37:55.936Z,166.00
2018-10-18T05:38:55.910Z,168.60
2018-10-18T05:39:55.896Z,170.20
2018-10-18T05:40:55.894Z,163.60
2018-10-18T05:41:55.838Z,159.80
2018-10-18T05:42:55.938Z,164.50
2018-10-18T05:43:55.855Z,170.30
2018-10-18T05:44:55.852Z,167.80
2018-10-18T05:45:55.807Z,168.60
2018-10-18T05:46:55.827Z,166.50
2018-10-18T05:47:55.839Z,164.10
2018-10-18T05:48:55.833Z,164.20
2018-10-18T05:49:55.767Z,162.10
2018-10-18T05:50:55.782Z,167.30
2018-10-18T05:51:55.771Z,163.70
2018-10-18T05:52:55.766Z,165.90
2018-10-18T05:53:55.890Z,166.00
2018-10-18T05:54:55.810Z,167.20
2018-10-18T05:55:55.735Z,156.90
2018-10-18T05:56:55.714Z,160.70
2018-10-18T05:57:55.705Z,154.50
2018-10-18T05:58:55.676Z,158.80
2018-10-18T05:59:55.681Z,165.80
2018-10-18T06:00:55.732Z,162.70
2018-10-18T06:01:55.680Z,166.00
2018-10-18T06:02:55.652Z,155.90
2018-10-18T06:03:55.664Z,160.00
2018-10-18T06:04:55.627Z,165.70
2018-10-18T06:05:55.624Z,161.10
2018-10-18T06:06:55.621Z,160.50
2018-10-18T06:07:55.599Z,157.50
2018-10-18T06:08:55.612Z,169.00
2018-10-18T06:09:55.606Z,161.60
2018-10-18T06:10:55.566Z,161.20
2018-10-18T06:11:55.560Z,158.30
2018-10-18T06:12:55.547Z,164.70
2018-10-18T06:13:55.565Z,162.10
2018-10-18T06:14:55.522Z,158.90
2018-10-18T06:15:55.507Z,162.60
2018-10-18T06:16:55.501Z,158.50
2018-10-18T06:17:55.447Z,160.60
2018-10-18T06:18:55.550Z,155.20
2018-10-18T06:19:55.423Z,157.80
2018-10-18T06:20:55.454Z,158.20
2018-10-18T06:21:55.445Z,156.20
2018-10-18T06:22:55.480Z,164.40
2018-10-18T06:23:55.576Z,155.20
2018-10-18T06:24:55.452Z,153.90
2018-10-18T06:25:55.397Z,153.50
2018-10-18T06:26:55.386Z,152.60
2018-10-18T06:27:55.374Z,157.00
2018-10-18T06:28:55.410Z,155.40
2018-10-18T06:29:55.355Z,156.50
2018-10-18T06:30:55.398Z,154.30
2018-10-18T06:31:55.331Z,154.60
2018-10-18T06:32:55.325Z,151.70
2018-10-18T06:33:55.436Z,156.80
2018-10-18T06:34:55.334Z,151.00
2018-10-18T06:35:55.285Z,152.40
2018-10-18T06:36:55.350Z,154.10
2018-10-18T06:37:55.279Z,150.90
2018-10-18T06:38:55.297Z,151.20
2018-10-18T06:39:55.271Z,156.10
2018-10-18T06:40:55.263Z,154.70
2018-10-18T06:41:55.220Z,144.70
2018-10-18T06:42:55.226Z,153.20
2018-10-18T06:43:55.237Z,155.40
2018-10-18T06:44:55.194Z,151.80
2018-10-18T06:45:55.185Z,153.80
2018-10-18T06:46:55.227Z,153.20
2018-10-18T06:47:55.337Z,149.00
2018-10-18T06:48:55.234Z,152.00
2018-10-18T06:49:55.148Z,154.70
2018-10-18T06:50:55.120Z,149.90
2018-10-18T06:51:55.108Z,150.50
2018-10-18T06:52:55.099Z,142.80
2018-10-18T06:53:55.133Z,144.90
2018-10-18T06:54:55.110Z,143.70
2018-10-18T06:55:55.068Z,136.70
2018-10-18T06:56:55.058Z,131.90
2018-10-18T06:57:55.045Z,126.60
2018-10-18T06:58:55.055Z,130.30
2018-10-18T06:59:55.074Z,121.90
2018-10-18T07:00:55.024Z,124.30
2018-10-18T07:01:55.010Z,122.80
2018-10-18T07:02:55.003Z,122.10
2018-10-18T07:03:55.012Z,121.30
2018-10-18T07:04:54.919Z,120.20
2018-10-18T07:05:54.970Z,121.60
2018-10-18T07:06:54.940Z,115.60
2018-10-18T07:07:54.885Z,116.10
2018-10-18T07:08:55.056Z,113.20
2018-10-18T07:09:54.909Z,114.70
2018-10-18T07:10:54.997Z,115.70
2018-10-18T07:11:54.922Z,111.30
2018-10-18T07:12:54.893Z,108.80
2018-10-18T07:13:54.893Z,104.30
2018-10-18T07:14:54.867Z,107.10
2018-10-18T07:15:54.854Z,108.20
2018-10-18T07:16:54.834Z,104.80
2018-10-18T07:17:54.841Z,105.50
2018-10-18T07:18:54.830Z,103.20
2018-10-18T07:19:54.802Z,105.70
2018-10-18T07:20:54.799Z,106.50
2018-10-18T07:21:54.783Z,105.10
2018-10-18T07:22:54.731Z,105.60
2018-10-18T07:23:54.782Z,99.90
2018-10-18T07:24:54.722Z,104.80
2018-10-18T07:25:54.734Z,101.50
2018-10-18T07:26:54.813Z,100.20
2018-10-18T07:27:54.708Z,97.70
2018-10-18T07:28:54.713Z,100.70
2018-10-18T07:29:54.734Z,96.50
2018-10-18T07:30:54.677Z,98.50
2018-10-18T07:31:54.666Z,98.70
2018-10-18T07:32:54.614Z,92.90
2018-10-18T07:33:54.624Z,95.90
2018-10-18T07:34:54.737Z,98.10
2018-10-18T07:35:54.668Z,93.90
2018-10-18T07:36:54.609Z,93.10
2018-10-18T07:37:54.613Z,97.30
2018-10-18T07:38:54.594Z,99.10
2018-10-18T07:39:54.595Z,94.40
2018-10-18T07:40:54.564Z,92.40
2018-10-18T07:41:54.555Z,90.40
2018-10-18T07:42:54.571Z,92.90
2018-10-18T07:43:54.537Z,93.40
2018-10-18T07:44:54.557Z,96.40
2018-10-18T07:45:54.509Z,90.90
2018-10-18T07:46:54.588Z,91.00
2018-10-18T07:47:54.458Z,95.00
2018-10-18T07:48:54.498Z,91.00
2018-10-18T07:49:54.491Z,88.00
2018-10-18T07:50:54.450Z,89.30
2018-10-18T07:51:54.445Z,91.10
2018-10-18T07:52:54.499Z,87.70
2018-10-18T07:53:54.443Z,88.90
2018-10-18T07:54:54.434Z,88.30
2018-10-18T07:55:54.416Z,84.60
2018-10-18T07:56:54.399Z,82.90
2018-10-18T07:57:54.378Z,83.20
2018-10-18T07:58:54.325Z,83.90
2018-10-18T07:59:54.391Z,85.90
2018-10-18T08:00:54.420Z,84.70
2018-10-18T08:01:54.332Z,89.50
2018-10-18T08:02:54.281Z,85.90
2018-10-18T08:03:54.319Z,86.30
2018-10-18T08:04:54.330Z,82.20
2018-10-18T08:05:54.292Z,84.60
2018-10-18T08:06:54.304Z,84.40
2018-10-18T08:07:54.272Z,80.50
2018-10-18T08:08:54.258Z,81.90
2018-10-18T08:09:54.286Z,78.40
2018-10-18T08:10:54.284Z,78.90
2018-10-18T08:11:54.227Z,86.90
2018-10-18T08:12:54.227Z,82.30
2018-10-18T08:13:54.209Z,81.30
2018-10-18T08:14:54.230Z,81.20
2018-10-18T08:15:54.216Z,82.40
2018-10-18T08:16:54.204Z,82.20
2018-10-18T08:17:54.159Z,80.50
2018-10-18T08:18:54.186Z,85.60
2018-10-18T08:19:54.101Z,81.80
2018-10-18T08:20:54.175Z,81.30
2018-10-18T08:21:54.107Z,82.20
2018-10-18T08:22:54.109Z,83.00
2018-10-18T08:23:54.100Z,80.70
2018-10-18T08:24:54.129Z,83.40
2018-10-18T08:25:54.199Z,82.60
2018-10-18T08:26:54.059Z,79.80
2018-10-18T08:27:54.047Z,81.40
2018-10-18T08:28:54.051Z,81.70
2018-10-18T08:29:53.985Z,83.30
2018-10-18T08:30:54.096Z,79.60
2018-10-18T08:31:54.076Z,79.80
2018-10-18T08:32:53.997Z,75.90
2018-10-18T08:33:53.942Z,78.70
2018-10-18T08:34:53.969Z,78.10
2018-10-18T08:35:54.022Z,82.70
2018-10-18T08:36:53.973Z,80.10
2018-10-18T08:37:54.113Z,85.70
2018-10-18T08:38:53.937Z,84.00
2018-10-18T08:39:53.927Z,84.50
2018-10-18T08:40:53.932Z,85.00
2018-10-18T08:41:53.906Z,80.30
2018-10-18T08:42:53.935Z,88.40
2018-10-18T08:43:54.003Z,83.90
2018-10-18T08:44:53.866Z,86.90
2018-10-18T08:45:53.829Z,86.90
2018-10-18T08:46:53.839Z,87.00
2018-10-18T08:47:53.831Z,91.90
2018-10-18T08:48:53.789Z,81.80
2018-10-18T08:49:53.910Z,85.40
2018-10-18T08:50:53.817Z,83.30
2018-10-18T08:51:53.784Z,83.90
2018-10-18T08:52:53.778Z,86.60
2018-10-18T08:53:53.763Z,85.70
2018-10-18T08:54:53.804Z,84.70
2018-10-18T08:55:53.763Z,83.00
2018-10-18T08:56:53.727Z,85.00
2018-10-18T08:57:53.728Z,81.40
2018-10-18T08:58:53.736Z,80.60
2018-10-18T08:59:53.700Z,82.80
2018-10-18T09:00:53.729Z,81.60
2018-10-18T09:01:53.631Z,85.30
2018-10-18T09:02:53.666Z,86.80
2018-10-18T09:03:53.657Z,86.00
2018-10-18T09:04:53.656Z,87.30
2018-10-18T09:05:53.658Z,87.60
2018-10-18T09:06:53.651Z,85.40
2018-10-18T09:07:53.616Z,83.60
2018-10-18T09:08:53.620Z,85.10
2018-10-18T09:09:53.593Z,86.10
2018-10-18T09:10:53.611Z,85.40
2018-10-18T09:11:53.586Z,84.00
2018-10-18T09:12:53.576Z,85.50
2018-10-18T09:13:53.567Z,79.60
2018-10-18T09:14:53.544Z,83.90
2018-10-18T09:15:53.578Z,84.40
2018-10-18T09:16:53.526Z,86.30
2018-10-18T09:17:53.507Z,83.40
2018-10-18T09:18:53.540Z,82.80
2018-10-18T09:19:53.484Z,85.50
2018-10-18T09:20:53.506Z,84.30
2018-10-18T09:21:53.465Z,81.50
2018-10-18T09:22:53.529Z,85.80
2018-10-18T09:23:53.655Z,78.60
2018-10-18T09:24:53.405Z,82.10
2018-10-18T09:25:53.450Z,85.20
2018-10-18T09:26:53.411Z,85.30
2018-10-18T09:27:53.402Z,81.00
2018-10-18T09:28:53.421Z,86.90
2018-10-18T09:29:53.377Z,85.10
2018-10-18T09:30:53.411Z,80.20
2018-10-18T09:31:53.359Z,78.90
2018-10-18T09:32:53.337Z,82.80
2018-10-18T09:33:53.351Z,84.10
2018-10-18T09:34:53.328Z,85.50
2018-10-18T09:35:53.341Z,79.00
2018-10-18T09:36:53.362Z,78.70
2018-10-18T09:37:53.297Z,77.30
2018-10-18T09:38:53.294Z,77.80
2018-10-18T09:39:53.275Z,80.50
2018-10-18T09:40:53.283Z,80.50
2018-10-18T09:41:53.267Z,80.60
2018-10-18T09:42:53.211Z,84.10
2018-10-18T09:43:53.239Z,86.90
2018-10-18T09:44:53.309Z,82.90
2018-10-18T09:45:53.205Z,78.10
2018-10-18T09:46:53.231Z,79.20
2018-10-18T09:47:53.187Z,73.00
2018-10-18T09:48:53.182Z,85.70
2018-10-18T09:49:53.175Z,77.50
2018-10-18T09:50:53.161Z,75.30
2018-10-18T09:51:53.165Z,74.70
2018-10-18T09:52:53.177Z,75.30
2018-10-18T09:53:53.125Z,76.90
2018-10-18T09:54:53.115Z,77.20
2018-10-18T09:55:53.159Z,73.50
2018-10-18T09:56:53.076Z,76.20
2018-10-18T09:57:53.080Z,75.50
2018-10-18T09:58:53.082Z,76.40
2018-10-18T09:59:53.059Z,74.70
2018-10-18T10:00:53.100Z,71.40
2018-10-18T10:01:53.061Z,73.10
2018-10-18T10:02:53.028Z,73.80
2018-10-18T10:03:53.022Z,75.50
2018-10-18T10:04:53.015Z,75.20
2018-10-18T10:05:53.001Z,77.00
2018-10-18T10:06:53.012Z,76.60
2018-10-18T10:07:52.984Z,75.70
2018-10-18T10:08:52.968Z,74.60
2018-10-18T10:09:52.958Z,79.70
2018-10-18T10:10:52.953Z,75.60
2018-10-18T10:11:52.983Z,76.60
2018-10-18T10:12:52.958Z,78.20
2018-10-18T10:13:52.922Z,75.40
2018-10-18T10:14:52.899Z,73.00
2018-10-18T10:15:52.959Z,72.20
2018-10-18T10:16:52.902Z,72.60
2018-10-18T10:17:52.942Z,74.50
2018-10-18T10:18:52.858Z,75.80
2018-10-18T10:19:52.849Z,76.10
2018-10-18T10:20:52.840Z,77.20
2018-10-18T10:21:52.918Z,74.90
2018-10-18T10:22:52.814Z,77.10
2018-10-18T10:23:52.819Z,71.90
2018-10-18T10:24:52.805Z,70.30
2018-10-18T10:25:52.742Z,74.60
2018-10-18T10:26:52.788Z,77.70
2018-10-18T10:27:52.757Z,73.90
2018-10-18T10:28:52.767Z,74.00
2018-10-18T10:29:52.738Z,74.30
2018-10-18T10:30:52.776Z,75.40
2018-10-18T10:31:52.759Z,78.30
2018-10-18T10:32:52.721Z,70.60
2018-10-18T10:33:52.709Z,75.60
2018-10-18T10:34:52.709Z,76.30
2018-10-18T10:35:52.677Z,72.00
2018-10-18T10:36:52.691Z,74.30
2018-10-18T10:37:52.648Z,75.10
2018-10-18T10:38:52.641Z,79.00
2018-10-18T10:39:52.634Z,79.80
2018-10-18T10:40:52.620Z,74.20
2018-10-18T10:41:52.664Z,71.20
2018-10-18T10:42:52.667Z,74.60
2018-10-18T10:43:52.590Z,68.00
2018-10-18T10:44:52.623Z,72.70
2018-10-18T10:45:52.609Z,72.20
2018-10-18T10:46:52.589Z,73.00
2018-10-18T10:47:52.545Z,70.20
2018-10-18T10:48:52.531Z,72.00
2018-10-18T10:49:52.566Z,70.30
2018-10-18T10:50:52.506Z,68.70
2018-10-18T10:51:52.565Z,70.80
2018-10-18T10:52:52.491Z,66.90
2018-10-18T10:53:52.537Z,74.00
2018-10-18T10:54:52.466Z,66.10
2018-10-18T10:55:52.463Z,71.90
2018-10-18T10:56:52.507Z,68.50
2018-10-18T10:57:52.476Z,67.60
2018-10-18T10:58:52.450Z,70.50
2018-10-18T10:59:52.429Z,69.50
2018-10-18T11:00:52.409Z,69.40
2018-10-18T11:01:52.463Z,69.20
2018-10-18T11:02:52.413Z,64.70
2018-10-18T11:03:52.364Z,67.60
2018-10-18T11:04:52.374Z,66.30
2018-10-18T11:05:52.361Z,63.70
2018-10-18T11:06:52.341Z,65.20
2018-10-18T11:07:52.389Z,65.60
2018-10-18T11:08:52.296Z,65.90
2018-10-18T11:09:52.316Z,60.90
2018-10-18T11:10:52.507Z,58.50
2018-10-18T11:11:52.310Z,55.40
2018-10-18T11:12:52.301Z,53.40
2018-10-18T11:13:52.301Z,59.80
2018-10-18T11:14:52.221Z,58.40
2018-10-18T11:15:52.260Z,52.30
2018-10-18T11:16:52.229Z,51.30
2018-10-18T11:17:52.283Z,51.20
2018-10-18T11:18:52.209Z,49.10
2018-10-18T11:19:52.207Z,53.10
2018-10-18T11:20:52.222Z,50.60
2018-10-18T11:21:52.178Z,48.90
2018-10-18T11:22:52.184Z,48.70
2018-10-18T11:23:52.192Z,46.00
2018-10-18T11:24:52.242Z,46.50
2018-10-18T11:25:52.186Z,49.70
2018-10-18T11:26:52.146Z,47.10
2018-10-18T11:27:52.128Z,45.00
2018-10-18T11:28:52.101Z,42.00
2018-10-18T11:29:52.236Z,42.90
2018-10-18T11:30:52.066Z,46.90
2018-10-18T11:31:52.072Z,43.50
2018-10-18T11:32:52.106Z,45.20
2018-10-18T11:33:52.050Z,41.80
2018-10-18T11:34:52.040Z,41.80
2018-10-18T11:35:52.030Z,42.90
2018-10-18T11:36:52.020Z,40.80
2018-10-18T11:37:52.052Z,41.10
2018-10-18T11:38:51.997Z,40.10
2018-10-18T11:39:51.954Z,42.50
2018-10-18T11:40:51.967Z,37.50
2018-10-18T11:41:51.971Z,36.80
2018-10-18T11:42:51.978Z,37.10
2018-10-18T11:43:51.953Z,35.00
2018-10-18T11:44:51.930Z,36.40
2018-10-18T11:45:51.913Z,36.10
2018-10-18T11:46:51.910Z,34.40
2018-10-18T11:47:51.954Z,33.70
2018-10-18T11:48:51.879Z,32.90
2018-10-18T11:49:51.878Z,34.10
2018-10-18T11:50:51.865Z,33.50
2018-10-18T11:51:51.915Z,34.50
2018-10-18T11:52:51.855Z,33.00
2018-10-18T11:53:51.845Z,33.90
2018-10-18T11:54:51.817Z,32.10
2018-10-18T11:55:51.850Z,34.80
2018-10-18T11:56:51.747Z,33.20
2018-10-18T11:57:51.815Z,34.10
2018-10-18T11:58:51.778Z,33.20
2018-10-18T11:59:51.757Z,32.90
2018-10-18T12:00:51.748Z,31.60
2018-10-18T12:01:51.774Z,31.40
2018-10-18T12:02:51.722Z,32.40
2018-10-18T12:03:51.731Z,34.50
2018-10-18T12:04:51.670Z,33.00
2018-10-18T12:05:51.689Z,33.80
2018-10-18T12:06:51.677Z,31.30
2018-10-18T12:07:51.679Z,32.40
2018-10-18T12:08:51.638Z,33.10
2018-10-18T12:09:51.647Z,32.10
2018-10-18T12:10:51.644Z,31.80
2018-10-18T12:11:51.636Z,30.20
2018-10-18T12:12:51.609Z,33.50
2018-10-18T12:13:51.760Z,34.40
2018-10-18T12:14:51.588Z,31.20
2018-10-18T12:15:51.581Z,29.40
2018-10-18T12:16:51.622Z,30.90
2018-10-18T12:17:51.568Z,32.40
2018-10-18T12:18:51.590Z,30.70
2018-10-18T12:19:51.494Z,30.60
2018-10-18T12:20:51.528Z,33.10
2018-10-18T12:21:51.533Z,32.60
2018-10-18T12:22:51.571Z,32.20
2018-10-18T12:23:51.575Z,30.80
2018-10-18T12:24:51.495Z,29.80
2018-10-18T12:25:51.475Z,30.90
2018-10-18T12:26:51.554Z,31.20
2018-10-18T12:27:51.467Z,32.60
2018-10-18T12:28:51.462Z,30.70
2018-10-18T12:29:51.388Z,32.40
2018-10-18T12:30:51.367Z,29.10
2018-10-18T12:31:51.406Z,33.60
2018-10-18T12:32:51.405Z,32.00
2018-10-18T12:33:51.430Z,31.20
2018-10-18T12:34:51.379Z,31.00
2018-10-18T12:35:51.361Z,30.70
2018-10-18T12:36:51.316Z,30.50
2018-10-18T12:37:51.336Z,30.00
2018-10-18T12:38:51.347Z,32.90